createdAt,value
2018-04-10T00:01:31.070Z,80.30
2018-04-10T00:04:01.759Z,79.00
2018-04-10T00:06:32.470Z,78.10
2018-04-10T00:09:02.421Z,78.10
2018-04-10T00:11:32.401Z,78.40
2018-04-10T00:14:02.322Z,79.30
2018-04-10T00:16:33.061Z,79.90
2018-04-10T00:19:03.006Z,79.80
2018-04-10T00:21:33.730Z,81.60
2018-04-10T00:24:03.721Z,80.80
2018-04-10T00:26:33.709Z,81.40
2018-04-10T00:29:03.694Z,82.00
2018-04-10T00:31:34.501Z,82.30
2018-04-10T00:34:05.282Z,81.20
2018-04-10T00:36:36.021Z,81.50
2018-04-10T00:39:06.092Z,81.50
2018-04-10T00:41:36.919Z,81.00
2018-04-10T00:44:06.922Z,81.00
2018-04-10T00:46:37.708Z,83.10
2018-04-10T00:49:08.442Z,82.90
2018-04-10T00:51:39.161Z,82.90
2018-04-10T00:54:09.909Z,83.30
2018-04-10T00:56:40.704Z,84.30
2018-04-10T00:59:11.470Z,85.60
2018-04-10T01:01:42.202Z,86.00
2018-04-10T01:04:12.961Z,84.80
2018-04-10T01:06:42.921Z,84.80
2018-04-10T01:09:13.658Z,85.70
2018-04-10T01:11:44.449Z,86.10
2018-04-10T01:14:14.429Z,86.70
2018-04-10T01:16:45.161Z,87.70
2018-04-10T01:19:15.242Z,87.70
2018-04-10T01:21:45.181Z,87.90
2018-04-10T01:24:16.041Z,86.80
2018-04-10T01:26:46.081Z,86.70
2018-04-10T01:29:16.042Z,85.50
2018-04-10T01:31:45.977Z,84.80
2018-04-10T01:34:16.725Z,85.30
2018-04-10T01:36:47.447Z,85.60
2018-04-10T01:39:17.462Z,85.60
2018-04-10T01:41:47.489Z,85.60
2018-04-10T01:44:17.449Z,85.70
2018-04-10T01:46:47.462Z,86.30
2018-04-10T01:49:17.421Z,86.70
2018-04-10T01:51:48.206Z,86.80
2018-04-10T01:54:18.124Z,86.70
2018-04-10T01:56:48.048Z,87.90
2018-04-10T01:59:18.002Z,87.40
2018-04-10T02:01:48.882Z,85.00
2018-04-10T02:04:19.906Z,83.90
2018-04-10T02:06:50.747Z,84.00
2018-04-10T02:11:56.412Z,84.20
2018-04-10T02:14:27.241Z,84.70
2018-04-10T02:16:57.981Z,85.80
2018-04-10T02:19:27.930Z,85.80
2018-04-10T02:21:57.905Z,86.10
2018-04-10T02:24:28.664Z,85.10
2018-04-10T02:26:58.602Z,85.10
2018-04-10T02:29:28.574Z,86.00
2018-04-10T02:31:59.370Z,85.40
2018-04-10T02:34:30.141Z,85.30
2018-04-10T02:37:00.925Z,85.30
2018-04-10T02:39:31.829Z,85.50
2018-04-10T02:42:01.849Z,85.50
2018-04-10T02:44:31.830Z,86.50
2018-04-10T02:47:02.591Z,85.50
2018-04-10T02:49:32.529Z,85.50
2018-04-10T02:52:02.501Z,85.20
2018-04-10T02:54:33.200Z,86.80
2018-04-10T02:57:03.155Z,86.80
2018-04-10T02:59:33.889Z,88.80
2018-04-10T03:02:04.681Z,86.30
2018-04-10T03:04:35.445Z,84.00
2018-04-10T03:07:06.169Z,83.50
2018-04-10T03:09:36.921Z,84.30
2018-04-10T03:12:06.922Z,84.20
2018-04-10T03:14:37.709Z,81.70
2018-04-10T03:17:07.661Z,81.70
2018-04-10T03:19:38.401Z,80.10
2018-04-10T03:22:08.329Z,80.00
2018-04-10T03:24:39.040Z,81.60
2018-04-10T03:27:09.921Z,81.50
2018-04-10T03:29:40.769Z,81.40
2018-04-10T03:32:10.750Z,82.40
2018-04-10T03:34:41.482Z,82.80
2018-04-10T03:37:12.221Z,83.20
2018-04-10T03:39:42.189Z,83.00
2018-04-10T03:42:12.141Z,83.60
2018-04-10T03:44:42.909Z,84.40
2018-04-10T03:47:12.881Z,84.30
2018-04-10T03:49:42.835Z,83.10
2018-04-10T03:52:13.572Z,78.50
2018-04-10T03:54:44.709Z,77.70
2018-04-10T03:57:14.669Z,77.60
2018-04-10T03:59:44.621Z,77.20
2018-04-10T04:02:15.361Z,76.40
2018-04-10T04:04:45.357Z,76.30
2018-04-10T04:07:16.350Z,75.50
2018-04-10T04:09:46.301Z,76.20
2018-04-10T04:12:17.073Z,74.80
2018-04-10T04:14:47.863Z,75.00
2018-04-10T04:17:34.261Z,75.10
2018-04-10T04:20:21.945Z,75.10
2018-04-10T04:22:52.644Z,77.20
2018-04-10T04:25:23.349Z,77.00
2018-04-10T04:27:53.321Z,77.00
2018-04-10T04:30:24.885Z,82.30
2018-04-10T04:32:54.829Z,82.30
2018-04-10T04:35:24.781Z,85.50
2018-04-10T04:37:55.501Z,87.10
2018-04-10T04:40:26.361Z,88.60
2018-04-10T04:42:57.180Z,88.90
2018-04-10T04:45:27.881Z,88.50
2018-04-10T04:47:58.602Z,88.10
2018-04-10T04:50:29.650Z,88.30
2018-04-10T04:52:59.562Z,88.30
2018-04-10T04:55:29.461Z,87.80
2018-04-10T04:57:59.402Z,88.60
2018-04-10T05:00:29.354Z,89.00
2018-04-10T05:03:00.882Z,88.90
2018-04-10T05:05:31.602Z,87.70
2018-04-10T05:08:03.265Z,87.50
2018-04-10T05:10:34.029Z,88.00
2018-04-10T05:13:04.745Z,89.00
2018-04-10T05:15:35.590Z,89.20
2018-04-10T05:18:06.309Z,90.10
2018-04-10T05:20:36.221Z,90.10
2018-04-10T05:23:07.141Z,90.50
2018-04-10T05:25:37.037Z,90.50
2018-04-10T05:28:07.917Z,91.20
2018-04-10T05:30:38.670Z,90.90
2018-04-10T05:33:09.421Z,90.80
2018-04-10T05:35:40.111Z,90.90
2018-04-10T05:38:10.858Z,90.80
2018-04-10T05:40:41.600Z,90.50
2018-04-10T05:43:12.346Z,89.70
2018-04-10T05:45:43.097Z,89.50
2018-04-10T05:48:13.105Z,89.40
2018-04-10T05:50:43.832Z,86.90
2018-04-10T05:53:13.803Z,86.90
2018-04-10T05:55:43.782Z,86.00
2018-04-10T05:58:14.984Z,86.30
2018-04-10T06:00:44.934Z,86.30
2018-04-10T06:03:15.670Z,85.00
2018-04-10T06:05:46.456Z,85.00
2018-04-10T06:08:17.610Z,85.30
2018-04-10T06:10:48.307Z,85.00
2018-04-10T06:13:19.291Z,85.10
2018-04-10T06:15:49.330Z,85.10
2018-04-10T06:18:20.142Z,84.60
2018-04-10T06:20:51.433Z,83.80
2018-04-10T06:23:21.544Z,83.70
2018-04-10T06:25:52.566Z,85.20
2018-04-10T06:28:23.305Z,84.10
2018-04-10T06:30:54.029Z,83.20
2018-04-10T06:33:25.062Z,83.40
2018-04-10T06:35:57.565Z,83.80
2018-04-10T06:38:28.770Z,87.00
2018-04-10T06:40:59.451Z,85.70
2018-04-10T06:43:29.409Z,85.80
2018-04-10T06:46:00.453Z,83.00
2018-04-10T06:48:30.451Z,83.00
2018-04-10T06:51:01.210Z,84.20
2018-04-10T06:53:31.949Z,84.20
2018-04-10T06:56:02.682Z,85.30
2018-04-10T06:58:33.434Z,83.40
2018-04-10T07:01:03.455Z,83.40
2018-04-10T07:03:33.398Z,84.20
2018-04-10T07:06:04.246Z,85.50
2018-04-10T07:08:34.205Z,85.60
2018-04-10T07:11:05.664Z,83.10
2018-04-10T07:13:36.688Z,78.30
2018-04-10T07:16:06.693Z,78.30
2018-04-10T07:18:37.461Z,77.50
2018-04-10T07:21:08.174Z,75.50
2018-04-10T07:23:38.634Z,75.50
2018-04-10T07:26:08.597Z,74.60
2018-04-10T07:28:39.302Z,75.00
2018-04-10T07:31:09.261Z,74.90
2018-04-10T07:33:39.181Z,75.20
2018-04-10T07:36:10.035Z,76.40
2018-04-10T07:38:40.882Z,77.00
2018-04-10T07:41:10.817Z,77.00
2018-04-10T07:43:41.604Z,77.40
2018-04-10T07:46:12.358Z,77.40
2018-04-10T07:48:42.350Z,77.40
2018-04-10T07:51:13.050Z,76.70
2018-04-10T07:53:43.002Z,76.70
2018-04-10T07:56:13.711Z,77.30
2018-04-10T07:58:44.548Z,76.00
2018-04-10T08:01:15.331Z,75.70
2018-04-10T08:03:45.290Z,75.70
2018-04-10T08:06:15.268Z,75.30
2018-04-10T08:08:45.233Z,75.70
2018-04-10T08:11:16.012Z,75.20
2018-04-10T08:13:45.990Z,75.10
2018-04-10T08:16:16.736Z,72.90
2018-04-10T08:18:47.670Z,75.60
2018-04-10T08:21:18.735Z,73.20
2018-04-10T08:23:49.594Z,72.50
2018-04-10T08:26:19.570Z,72.30
2018-04-10T08:28:49.594Z,72.70
2018-04-10T08:31:19.633Z,73.20
2018-04-10T08:33:49.707Z,71.70
2018-04-10T08:36:19.702Z,73.80
2018-04-10T08:38:50.470Z,71.80
2018-04-10T08:41:21.269Z,69.70
2018-04-10T08:43:52.130Z,68.80
2018-04-10T08:46:22.902Z,68.40
2018-04-10T08:48:54.134Z,67.90
2018-04-10T08:51:25.024Z,68.50
2018-04-10T08:53:56.782Z,67.30
2018-04-10T08:56:27.838Z,66.90
2018-04-10T08:58:57.858Z,66.90
2018-04-10T09:01:28.706Z,65.30
2018-04-10T09:03:59.470Z,66.00
2018-04-10T09:06:29.517Z,65.80
2018-04-10T09:08:59.512Z,64.20
2018-04-10T09:11:29.531Z,65.50
2018-04-10T09:13:59.534Z,66.10
2018-04-10T09:16:29.517Z,65.70
2018-04-10T09:19:00.280Z,71.20
2018-04-10T09:21:31.632Z,67.60
2018-04-10T09:24:02.679Z,70.60
2018-04-10T09:26:32.649Z,70.70
2018-04-10T09:29:02.956Z,66.50
2018-04-10T09:31:33.713Z,64.70
2018-04-10T09:34:04.440Z,64.40
2018-04-10T09:36:35.207Z,66.40
2018-04-10T09:39:05.233Z,66.20
2018-04-10T09:41:35.215Z,64.50
2018-04-10T09:44:05.196Z,67.30
2018-04-10T09:46:36.276Z,56.10
2018-04-10T09:49:06.994Z,52.60
2018-04-10T09:51:37.731Z,48.70
2018-04-10T09:54:07.661Z,48.70
2018-04-10T09:56:38.371Z,48.20
2018-04-10T09:59:08.279Z,48.20
2018-04-10T10:01:39.017Z,47.70
2018-04-10T10:04:09.741Z,48.30
2018-04-10T10:06:40.527Z,47.10
2018-04-10T10:09:11.227Z,47.10
2018-04-10T10:11:42.003Z,46.60
2018-04-10T10:14:13.179Z,48.40
2018-04-10T10:16:43.184Z,48.40
2018-04-10T10:19:13.162Z,45.70
2018-04-10T10:21:43.873Z,45.40
2018-04-10T10:24:14.609Z,43.80
2018-04-10T10:26:45.377Z,43.80
2018-04-10T10:29:15.336Z,43.80
2018-04-10T10:31:46.147Z,42.00
2018-04-10T10:34:16.151Z,42.10
2018-04-10T10:36:46.145Z,42.50
2018-04-10T10:39:16.129Z,42.20
2018-04-10T10:41:46.911Z,41.80
2018-04-10T10:44:17.983Z,41.40
2018-04-10T10:46:48.880Z,40.90
2018-04-10T10:49:19.976Z,41.40
2018-04-10T10:51:50.784Z,38.40
2018-04-10T10:54:20.753Z,38.40
2018-04-10T10:56:51.465Z,41.00
2018-04-10T10:59:22.219Z,40.80
2018-04-10T11:01:52.957Z,39.90
2018-04-10T11:04:23.753Z,40.20
2018-04-10T11:06:54.565Z,38.90
2018-04-10T11:09:24.516Z,38.90
2018-04-10T11:12:14.117Z,40.00
2018-04-10T11:14:45.029Z,38.70
2018-04-10T11:17:15.986Z,38.30
2018-04-10T11:19:46.917Z,39.90
2018-04-10T11:22:17.066Z,39.90
2018-04-10T11:24:47.369Z,38.80
2018-04-10T11:27:18.230Z,40.10
2018-04-10T11:29:49.762Z,39.20
2018-04-10T11:32:21.079Z,41.00
2018-04-10T11:34:51.967Z,38.50
2018-04-10T11:37:21.989Z,38.50
2018-04-10T11:39:52.997Z,37.40
2018-04-10T11:42:23.750Z,38.00
2018-04-10T11:44:54.565Z,38.00
2018-04-10T11:47:25.402Z,37.90
2018-04-10T11:49:55.550Z,37.90
2018-04-10T11:52:26.648Z,37.50
2018-04-10T11:54:57.914Z,37.10
2018-04-10T11:57:28.638Z,37.60
2018-04-10T11:59:58.637Z,37.50
2018-04-10T12:02:29.438Z,37.00
2018-04-10T12:04:59.437Z,37.00
2018-04-10T12:07:29.831Z,35.00
2018-04-10T12:09:59.806Z,35.90
2018-04-10T12:12:29.869Z,35.90
2018-04-10T12:15:00.841Z,35.40
2018-04-10T12:17:30.909Z,35.30
2018-04-10T12:20:01.806Z,35.80
2018-04-10T12:22:31.990Z,35.80
2018-04-10T12:25:02.850Z,33.50
2018-04-10T12:27:32.913Z,33.50
2018-04-10T12:30:02.829Z,36.00
2018-04-10T12:32:33.718Z,34.70
2018-04-10T12:35:03.838Z,34.70
2018-04-10T12:37:33.894Z,32.80
2018-04-10T12:40:04.837Z,34.10
2018-04-10T12:42:34.910Z,34.10
2018-04-10T12:45:05.990Z,34.00
2018-04-10T12:47:36.070Z,33.90
2018-04-10T12:50:06.998Z,32.80
2018-04-10T12:52:37.842Z,33.50
2018-04-10T12:55:08.790Z,33.90
2018-04-10T12:57:38.765Z,33.90
2018-04-10T13:00:09.905Z,33.10
2018-04-10T13:02:40.731Z,32.80
2018-04-10T13:05:11.600Z,32.30
2018-04-10T13:07:42.478Z,33.60
2018-04-10T13:10:12.551Z,33.60
2018-04-10T13:12:42.682Z,31.90
2018-04-10T13:15:13.543Z,32.70
2018-04-10T13:17:44.470Z,32.50
2018-04-10T13:20:15.770Z,31.10
2018-04-10T13:22:45.997Z,31.00
2018-04-10T13:25:17.103Z,31.60
2018-04-10T13:27:48.239Z,31.30
2018-04-10T13:30:19.636Z,30.80
2018-04-10T13:32:50.964Z,30.00
2018-04-10T13:35:22.164Z,29.80
2018-04-10T13:37:53.085Z,30.70
2018-04-10T13:40:23.228Z,30.70
2018-04-10T13:42:54.157Z,30.00
2018-04-10T13:45:25.077Z,29.70
2018-04-10T13:47:55.147Z,29.80
2018-04-10T13:50:26.043Z,30.90
2018-04-10T13:52:57.018Z,29.10
2018-04-10T13:55:28.037Z,28.30
2018-04-10T13:57:58.917Z,29.30
2018-04-10T14:00:28.971Z,29.30
2018-04-10T14:03:00.237Z,29.50
2018-04-10T14:05:30.325Z,29.40
2018-04-10T14:08:00.565Z,30.90
2018-04-10T14:10:32.433Z,30.20
2018-04-10T14:13:03.967Z,31.70
2018-04-10T14:15:34.919Z,29.80
2018-04-10T14:18:05.037Z,29.90
2018-04-10T14:20:35.880Z,30.30
2018-04-10T14:23:06.162Z,30.40
2018-04-10T14:25:36.320Z,30.00
2018-04-10T14:28:06.455Z,31.30
2018-04-10T14:30:36.477Z,31.30
2018-04-10T14:33:06.412Z,31.70
2018-04-10T14:35:37.318Z,29.80
2018-04-10T14:38:07.341Z,29.80
2018-04-10T14:40:37.488Z,30.00
2018-04-10T14:43:08.389Z,33.30
2018-04-10T14:45:38.486Z,33.20
2018-04-10T14:48:08.570Z,32.80
2018-04-10T14:50:39.589Z,33.80
2018-04-10T14:53:10.311Z,33.90
2018-04-10T14:55:41.357Z,32.40
2018-04-10T14:58:11.393Z,32.40
2018-04-10T15:00:42.695Z,31.60
2018-04-10T15:03:12.752Z,31.60
2018-04-10T15:05:42.843Z,32.90
2018-04-10T15:08:12.921Z,32.20
2018-04-10T15:10:44.112Z,32.80
2018-04-10T15:13:14.724Z,32.70
2018-04-10T15:15:45.833Z,31.30
2018-04-10T15:18:16.837Z,33.00
2018-04-10T15:20:47.017Z,33.00
2018-04-10T15:23:17.279Z,30.90
2018-04-10T15:25:48.565Z,30.20
2018-04-10T15:28:19.800Z,30.20
2018-04-10T15:30:50.036Z,30.40
2018-04-10T15:33:20.158Z,29.70
2018-04-10T15:35:50.557Z,29.70
2018-04-10T15:38:20.669Z,30.00
2018-04-10T15:40:50.797Z,29.50
2018-04-10T15:43:20.952Z,28.90
2018-04-10T15:45:51.015Z,29.50
2018-04-10T15:48:21.064Z,29.30
2018-04-10T15:50:51.137Z,29.10
2018-04-10T15:53:21.262Z,29.90
2018-04-10T15:55:51.517Z,30.30
2018-04-10T15:58:21.592Z,30.50
2018-04-10T16:00:51.566Z,31.70
2018-04-10T16:03:21.714Z,31.40
2018-04-10T16:05:51.830Z,30.80
2018-04-10T16:08:21.892Z,30.40
2018-04-10T16:10:52.787Z,30.50
2018-04-10T16:13:23.072Z,30.50
2018-04-10T16:15:53.166Z,30.20
2018-04-10T16:18:23.458Z,30.50
2018-04-10T16:20:57.201Z,30.40
2018-04-10T16:23:27.354Z,31.10
2018-04-10T16:25:57.386Z,31.90
2018-04-10T16:28:28.495Z,32.50
2018-04-10T16:30:59.257Z,32.20
2018-04-10T16:33:29.260Z,32.20
2018-04-10T16:36:00.029Z,31.60
2018-04-10T16:38:30.029Z,31.60
2018-04-10T16:41:00.948Z,34.50
2018-04-10T16:43:31.017Z,34.40
2018-04-10T16:46:01.025Z,35.50
2018-04-10T16:48:31.037Z,36.30
2018-04-10T16:51:01.057Z,36.00
2018-04-10T16:53:31.083Z,36.70
2018-04-10T16:56:01.172Z,38.70
2018-04-10T16:58:32.011Z,38.00
2018-04-10T17:01:02.097Z,37.90
2018-04-10T17:03:32.168Z,38.30
2018-04-10T17:06:03.047Z,38.50
2018-04-10T17:08:33.200Z,38.50
2018-04-10T17:11:03.262Z,37.80
2018-04-10T17:13:34.117Z,40.20
2018-04-10T17:16:04.969Z,39.90
2018-04-10T17:18:36.008Z,39.60
2018-04-10T17:21:06.164Z,39.60
2018-04-10T17:23:36.284Z,39.50
2018-04-10T17:26:06.412Z,39.70
2018-04-10T17:28:36.488Z,40.20
2018-04-10T17:31:06.625Z,40.10
2018-04-10T17:33:37.600Z,41.00
2018-04-10T17:36:07.693Z,40.90
2018-04-10T17:38:37.670Z,41.20
2018-04-10T17:41:08.453Z,42.40
2018-04-10T17:43:39.365Z,42.50
2018-04-10T17:46:09.728Z,42.60
2018-04-10T17:48:40.578Z,43.00
2018-04-10T17:51:11.806Z,43.20
2018-04-10T17:53:41.877Z,43.10
2018-04-10T17:56:12.721Z,43.00
2018-04-10T17:58:43.645Z,43.30
2018-04-10T18:01:14.409Z,43.00
2018-04-10T18:03:45.318Z,43.80
2018-04-10T18:06:16.165Z,43.70
2018-04-10T18:08:46.278Z,43.70
2018-04-10T18:11:17.130Z,42.50
2018-04-10T18:13:47.277Z,42.50
2018-04-10T18:16:18.121Z,44.00
2018-04-10T18:18:48.460Z,44.00
2018-04-10T18:21:18.690Z,43.30
2018-04-10T18:23:49.799Z,43.40
2018-04-10T18:26:21.502Z,43.10
2018-04-10T18:28:51.688Z,43.10
2018-04-10T18:31:21.717Z,42.30
2018-04-10T18:33:52.567Z,41.70
2018-04-10T18:36:23.364Z,42.40
2018-04-10T18:38:54.446Z,42.60
2018-04-10T18:41:24.458Z,42.60
2018-04-10T18:43:55.258Z,42.80
2018-04-10T18:46:26.581Z,43.70
2018-04-10T18:48:56.729Z,43.60
2018-04-10T18:51:27.576Z,42.30
2018-04-10T18:53:57.624Z,42.80
2018-04-10T18:56:27.642Z,43.10
2018-04-10T18:58:58.360Z,42.60
2018-04-10T19:01:29.424Z,42.00
2018-04-10T19:04:00.327Z,42.10
2018-04-10T19:06:31.671Z,41.90
2018-04-10T19:09:02.770Z,41.40
2018-04-10T19:11:33.002Z,41.40
2018-04-10T19:14:02.957Z,42.50
2018-04-10T19:16:33.073Z,42.40
2018-04-10T19:19:03.026Z,41.70
2018-04-10T19:21:33.049Z,41.20
2018-04-10T19:24:03.988Z,41.90
2018-04-10T19:26:35.045Z,42.10
2018-04-10T19:29:05.115Z,42.10
2018-04-10T19:31:35.133Z,42.00
2018-04-10T19:34:05.933Z,42.40
2018-04-10T19:36:36.750Z,42.10
2018-04-10T19:39:06.758Z,42.00
2018-04-10T19:41:36.848Z,42.30
2018-04-10T19:44:08.630Z,43.40
2018-04-10T19:46:38.686Z,43.30
2018-04-10T19:49:10.273Z,43.80
2018-04-10T19:51:41.299Z,44.10
2018-04-10T19:54:11.529Z,44.00
2018-04-10T19:56:42.916Z,44.10
2018-04-10T19:59:13.760Z,44.10
2018-04-10T20:01:44.565Z,43.40
2018-04-10T20:04:15.563Z,45.30
2018-04-10T20:06:45.645Z,45.20
2018-04-10T20:09:17.570Z,44.50
2018-04-10T20:11:47.762Z,44.20
2018-04-10T20:14:18.597Z,44.30
2018-04-10T20:16:48.597Z,44.30
2018-04-10T20:19:18.692Z,44.60
2018-04-10T20:21:48.727Z,49.20
2018-04-10T20:24:18.966Z,49.20
2018-04-10T20:26:49.245Z,48.00
2018-04-10T20:29:20.098Z,47.20
2018-04-10T20:31:50.832Z,47.30
2018-04-10T20:34:21.734Z,46.90
2018-04-10T20:36:51.849Z,46.90
2018-04-10T20:39:22.681Z,47.40
2018-04-10T20:41:53.523Z,48.30
2018-04-10T20:44:24.325Z,48.30
2018-04-10T20:46:55.397Z,48.00
2018-04-10T20:49:25.598Z,47.80
2018-04-10T20:51:55.648Z,48.80
2018-04-10T20:54:26.475Z,49.20
2018-04-10T20:56:57.245Z,48.40
2018-04-10T20:59:27.369Z,48.30
2018-04-10T21:01:58.210Z,48.30
2018-04-10T21:04:28.285Z,48.30
2018-04-10T21:06:59.249Z,51.10
2018-04-10T21:09:31.154Z,51.90
2018-04-10T21:12:02.022Z,52.70
2018-04-10T21:14:32.923Z,52.60
2018-04-10T21:17:02.919Z,52.60
2018-04-10T21:19:33.865Z,53.00
2018-04-10T21:22:04.047Z,53.00
2018-04-10T21:24:34.889Z,53.30
2018-04-10T21:27:05.006Z,53.30
2018-04-10T21:29:35.125Z,54.90
2018-04-10T21:32:06.015Z,56.50
2018-04-10T21:34:36.977Z,58.00
2018-04-10T21:37:07.841Z,59.30
2018-04-10T21:39:38.924Z,59.60
2018-04-10T21:42:08.964Z,59.60
2018-04-10T21:44:39.809Z,59.80
2018-04-10T21:47:10.646Z,60.50
2018-04-10T21:49:41.491Z,60.40
2018-04-10T21:52:11.569Z,60.40
2018-04-10T21:54:42.529Z,61.70
2018-04-10T21:57:12.649Z,61.70
2018-04-10T21:59:42.810Z,62.80
2018-04-10T22:02:12.935Z,62.90
2018-04-10T22:04:43.011Z,63.50
2018-04-10T22:07:13.089Z,63.60
2018-04-10T22:09:44.081Z,65.30
2018-04-10T22:12:14.967Z,65.40
2018-04-10T22:14:45.040Z,65.40
2018-04-10T22:17:15.833Z,63.70
2018-04-10T22:19:45.972Z,63.60
2018-04-10T22:22:16.773Z,63.90
2018-04-10T22:24:47.285Z,63.80
2018-04-10T22:27:17.378Z,63.20
2018-04-10T22:29:47.442Z,63.70
2018-04-10T22:32:18.412Z,65.60
2018-04-10T22:34:48.452Z,65.50
2018-04-10T22:37:18.489Z,66.60
2018-04-10T22:39:49.465Z,67.00
2018-04-10T22:42:20.411Z,65.60
2018-04-10T22:44:51.417Z,65.00
2018-04-10T22:47:22.404Z,65.10
2018-04-10T22:49:52.569Z,65.10
2018-04-10T22:52:23.580Z,65.90
2018-04-10T22:54:53.761Z,65.80
2018-04-10T22:57:23.854Z,65.90
2018-04-10T22:59:54.717Z,66.30
2018-04-10T23:02:25.569Z,66.30
2018-04-10T23:04:55.703Z,66.30
2018-04-10T23:07:26.498Z,67.60
2018-04-10T23:09:56.629Z,67.50
2018-04-10T23:12:27.545Z,68.10
2018-04-10T23:14:57.637Z,68.10
2018-04-10T23:17:28.433Z,66.50
2018-04-10T23:19:59.322Z,66.00
2018-04-10T23:22:29.525Z,66.00
2018-04-10T23:24:59.681Z,67.40
2018-04-10T23:27:29.890Z,69.20
2018-04-10T23:30:00.685Z,70.60
2018-04-10T23:32:31.671Z,71.60
2018-04-10T23:35:01.779Z,71.60
2018-04-10T23:37:32.730Z,71.40
2018-04-10T23:40:02.818Z,71.30
2018-04-10T23:42:32.973Z,71.00
2018-04-10T23:45:03.142Z,70.10
2018-04-10T23:47:34.016Z,72.80
2018-04-10T23:50:04.856Z,72.50
2018-04-10T23:52:35.935Z,72.90
2018-04-10T23:55:05.968Z,72.90
2018-04-10T23:57:36.030Z,72.80
